MAA233 EETN-LDZA
Flight info
| Callsign | MAA233 |
|---|---|
| Flight time | 2h 1m |
| Altitude | 40000 |
| Route | ORTAX DCT LUTAL P870 BERIL/N0484F410 DCT SUWGI/N0474F400 DCT EVINA Z175 SKARY DCT NEKIN |
| Aircraft | B772/H-SDE2E3FGHIJ5LORVWXY/LB1D1 |
Departure
| Time | 2026-04-28 17:04 |
|---|---|
| Airport | Lennart Meri Tallinn Airport (EETN) |
Arrival
| Time | 2026-04-28 19:05 |
|---|---|
| Airport | Zagreb Franjo Tuđman International Airport (LDZA) |
| Time | Latitude | Longitude | Altitude | Speed | Heading |
|---|---|---|---|---|---|
| 2026-04-28 16:24 | 59.41585 | 24.81008 | 162 ft | 0 kts | 180° |
| 2026-04-28 16:44 | 59.41584 | 24.81008 | 162 ft | 1 kts | 180° |
| 2026-04-28 16:45 | 59.41555 | 24.80996 | 162 ft | 5 kts | 204° |
| 2026-04-28 16:45 | 59.41526 | 24.80948 | 162 ft | 5 kts | 234° |
| 2026-04-28 16:45 | 59.41515 | 24.80880 | 162 ft | 4 kts | 264° |
| 2026-04-28 16:45 | 59.41515 | 24.80854 | 162 ft | 0 kts | 271° |
| 2026-04-28 17:01 | 59.41515 | 24.80852 | 162 ft | 1 kts | 271° |
| 2026-04-28 17:02 | 59.41515 | 24.80815 | 163 ft | 4 kts | 272° |
| 2026-04-28 17:02 | 59.41516 | 24.80767 | 163 ft | 6 kts | 272° |
| 2026-04-28 17:02 | 59.41513 | 24.80624 | 164 ft | 9 kts | 252° |
| 2026-04-28 17:02 | 59.41478 | 24.80499 | 164 ft | 11 kts | 214° |
| 2026-04-28 17:03 | 59.41336 | 24.80771 | 161 ft | 19 kts | 99° |
| 2026-04-28 17:03 | 59.41332 | 24.81054 | 160 ft | 22 kts | 90° |
| 2026-04-28 17:03 | 59.41330 | 24.81519 | 156 ft | 59 kts | 91° |
| 2026-04-28 17:04 | 59.41325 | 24.84847 | 455 ft | 152 kts | 87° |
| 2026-04-28 17:04 | 59.41254 | 24.86743 | 1248 ft | 145 kts | 93° |
| 2026-04-28 17:05 | 59.39720 | 24.89629 | 1918 ft | 193 kts | 178° |
| 2026-04-28 17:05 | 59.38398 | 24.88905 | 2225 ft | 209 kts | 209° |
| 2026-04-28 17:05 | 59.37083 | 24.87514 | 2589 ft | 225 kts | 211° |
| 2026-04-28 17:06 | 59.34141 | 24.84336 | 3459 ft | 258 kts | 211° |
| 2026-04-28 17:06 | 59.32521 | 24.82589 | 3934 ft | 272 kts | 211° |
| 2026-04-28 17:06 | 59.29155 | 24.78969 | 5285 ft | 282 kts | 211° |
| 2026-04-28 17:07 | 59.27433 | 24.77121 | 5964 ft | 286 kts | 211° |
| 2026-04-28 17:07 | 59.25692 | 24.75255 | 6597 ft | 290 kts | 211° |
| 2026-04-28 17:07 | 59.23911 | 24.73349 | 7320 ft | 292 kts | 211° |
| 2026-04-28 17:07 | 59.22124 | 24.71438 | 7985 ft | 296 kts | 210° |
| 2026-04-28 17:08 | 59.20301 | 24.69492 | 8645 ft | 299 kts | 210° |
| 2026-04-28 17:08 | 59.18481 | 24.67551 | 9304 ft | 301 kts | 210° |
| 2026-04-28 17:08 | 59.16649 | 24.65600 | 10034 ft | 302 kts | 210° |
| 2026-04-28 17:08 | 59.14802 | 24.63634 | 10549 ft | 309 kts | 210° |
| 2026-04-28 17:09 | 59.12867 | 24.61578 | 10798 ft | 327 kts | 210° |
| 2026-04-28 17:09 | 59.10818 | 24.59404 | 11058 ft | 344 kts | 210° |
| 2026-04-28 17:09 | 59.08676 | 24.57134 | 11329 ft | 360 kts | 210° |
| 2026-04-28 17:09 | 59.06440 | 24.54769 | 11752 ft | 370 kts | 210° |
| 2026-04-28 17:10 | 59.04169 | 24.52371 | 12426 ft | 373 kts | 210° |
| 2026-04-28 17:10 | 59.01883 | 24.49961 | 13122 ft | 377 kts | 210° |
| 2026-04-28 17:10 | 58.99581 | 24.47537 | 13798 ft | 383 kts | 210° |
| 2026-04-28 17:10 | 58.97231 | 24.45068 | 14570 ft | 387 kts | 210° |
| 2026-04-28 17:11 | 58.94878 | 24.42600 | 15391 ft | 390 kts | 210° |
| 2026-04-28 17:11 | 58.92486 | 24.40093 | 16262 ft | 393 kts | 209° |
| 2026-04-28 17:11 | 58.90100 | 24.37598 | 17112 ft | 395 kts | 210° |
| 2026-04-28 17:11 | 58.87672 | 24.35062 | 17884 ft | 399 kts | 210° |
| 2026-04-28 17:12 | 58.85164 | 24.32727 | 18613 ft | 404 kts | 201° |
| 2026-04-28 17:12 | 58.82464 | 24.31176 | 19314 ft | 408 kts | 193° |
| 2026-04-28 17:12 | 58.79678 | 24.29928 | 20025 ft | 412 kts | 192° |
| 2026-04-28 17:12 | 58.76898 | 24.28706 | 20789 ft | 414 kts | 192° |
| 2026-04-28 17:13 | 58.74055 | 24.27460 | 21530 ft | 416 kts | 192° |
| 2026-04-28 17:13 | 58.71219 | 24.26219 | 22177 ft | 420 kts | 192° |
| 2026-04-28 17:13 | 58.68325 | 24.24954 | 22846 ft | 424 kts | 192° |
| 2026-04-28 17:13 | 58.65479 | 24.23711 | 23509 ft | 426 kts | 192° |
| 2026-04-28 17:14 | 58.62565 | 24.22442 | 24130 ft | 430 kts | 192° |
| 2026-04-28 17:14 | 58.59657 | 24.21176 | 24762 ft | 433 kts | 192° |
| 2026-04-28 17:14 | 58.56711 | 24.19897 | 25304 ft | 437 kts | 192° |
| 2026-04-28 17:14 | 58.53737 | 24.18608 | 25813 ft | 442 kts | 192° |
| 2026-04-28 17:15 | 58.50731 | 24.17307 | 26307 ft | 447 kts | 192° |
| 2026-04-28 17:15 | 58.47706 | 24.15999 | 26754 ft | 451 kts | 192° |
| 2026-04-28 17:15 | 58.44595 | 24.14657 | 27195 ft | 456 kts | 192° |
| 2026-04-28 17:15 | 58.41496 | 24.13323 | 27621 ft | 460 kts | 192° |
| 2026-04-28 17:16 | 58.38337 | 24.11965 | 28041 ft | 464 kts | 192° |
| 2026-04-28 17:16 | 58.35202 | 24.10620 | 28461 ft | 468 kts | 192° |
| 2026-04-28 17:16 | 58.31996 | 24.09247 | 28833 ft | 472 kts | 192° |
| 2026-04-28 17:16 | 58.28809 | 24.07885 | 29187 ft | 477 kts | 192° |
| 2026-04-28 17:17 | 58.25560 | 24.06499 | 29607 ft | 480 kts | 192° |
| 2026-04-28 17:17 | 58.22308 | 24.05114 | 30018 ft | 483 kts | 192° |
| 2026-04-28 17:17 | 58.19022 | 24.03718 | 30337 ft | 487 kts | 192° |
| 2026-04-28 17:17 | 58.15688 | 24.02303 | 30625 ft | 493 kts | 192° |
| 2026-04-28 17:18 | 58.12336 | 24.00884 | 30928 ft | 497 kts | 192° |
| 2026-04-28 17:18 | 58.08973 | 23.99462 | 31255 ft | 501 kts | 193° |
| 2026-04-28 17:18 | 58.05554 | 23.98021 | 31611 ft | 504 kts | 193° |
| 2026-04-28 17:18 | 58.02139 | 23.96583 | 31966 ft | 508 kts | 193° |
| 2026-04-28 17:19 | 57.98684 | 23.95132 | 32314 ft | 511 kts | 193° |
| 2026-04-28 17:19 | 57.95184 | 23.93664 | 32654 ft | 515 kts | 193° |
| 2026-04-28 17:19 | 57.91727 | 23.92217 | 32977 ft | 518 kts | 193° |
| 2026-04-28 17:19 | 57.88174 | 23.90767 | 33276 ft | 522 kts | 191° |
| 2026-04-28 17:20 | 57.84613 | 23.89570 | 33670 ft | 525 kts | 190° |
| 2026-04-28 17:20 | 57.82185 | 23.88786 | 34034 ft | 524 kts | 190° |
| 2026-04-28 17:20 | 57.77437 | 23.87253 | 34843 ft | 520 kts | 190° |
| 2026-04-28 17:20 | 57.73871 | 23.86097 | 35390 ft | 519 kts | 190° |
| 2026-04-28 17:21 | 57.70349 | 23.84952 | 35851 ft | 519 kts | 190° |
| 2026-04-28 17:21 | 57.66772 | 23.83793 | 36238 ft | 520 kts | 190° |
| 2026-04-28 17:21 | 57.63238 | 23.82647 | 36597 ft | 521 kts | 190° |
| 2026-04-28 17:22 | 57.56124 | 23.80341 | 37315 ft | 521 kts | 190° |
| 2026-04-28 17:22 | 57.52573 | 23.79191 | 37666 ft | 520 kts | 190° |
| 2026-04-28 17:22 | 57.48976 | 23.78028 | 38003 ft | 521 kts | 190° |
| 2026-04-28 17:23 | 57.41898 | 23.75745 | 38648 ft | 521 kts | 190° |
| 2026-04-28 17:23 | 57.38313 | 23.74590 | 38974 ft | 520 kts | 190° |
| 2026-04-28 17:23 | 57.34750 | 23.73445 | 39298 ft | 519 kts | 190° |
| 2026-04-28 17:23 | 57.31218 | 23.72311 | 39587 ft | 518 kts | 190° |
| 2026-04-28 17:24 | 57.27692 | 23.71181 | 39811 ft | 519 kts | 190° |
| 2026-04-28 17:24 | 57.24105 | 23.70034 | 40035 ft | 519 kts | 191° |
| 2026-04-28 17:24 | 57.20573 | 23.68907 | 40198 ft | 520 kts | 191° |
| 2026-04-28 17:24 | 57.16959 | 23.67755 | 40202 ft | 523 kts | 191° |
| 2026-04-28 17:25 | 57.06162 | 23.64329 | 40210 ft | 531 kts | 191° |
| 2026-04-28 17:26 | 56.98841 | 23.62017 | 40212 ft | 535 kts | 191° |
| 2026-04-28 17:26 | 56.91483 | 23.59703 | 40211 ft | 538 kts | 191° |
| 2026-04-28 17:27 | 56.84112 | 23.57394 | 40207 ft | 539 kts | 191° |
| 2026-04-28 17:27 | 56.76671 | 23.55072 | 40206 ft | 540 kts | 191° |
| 2026-04-28 17:28 | 56.69257 | 23.52769 | 40208 ft | 539 kts | 191° |
| 2026-04-28 17:28 | 56.58191 | 23.49347 | 40204 ft | 539 kts | 191° |
| 2026-04-28 17:29 | 56.50860 | 23.47092 | 40203 ft | 539 kts | 191° |
| 2026-04-28 17:30 | 56.39730 | 23.43684 | 40204 ft | 539 kts | 191° |
| 2026-04-28 17:30 | 56.28645 | 23.40694 | 40200 ft | 538 kts | 188° |
| 2026-04-28 17:31 | 56.17522 | 23.38057 | 40202 ft | 538 kts | 189° |
| 2026-04-28 17:32 | 56.06383 | 23.35403 | 40203 ft | 538 kts | 189° |
| 2026-04-28 17:32 | 55.98967 | 23.33638 | 40208 ft | 538 kts | 188° |
| 2026-04-28 17:33 | 55.91518 | 23.31869 | 40211 ft | 538 kts | 188° |
| 2026-04-28 17:33 | 55.85315 | 23.30400 | 40204 ft | 538 kts | 188° |
| 2026-04-28 17:34 | 55.76687 | 23.28363 | 40214 ft | 537 kts | 188° |
| 2026-04-28 17:34 | 55.69264 | 23.26617 | 40206 ft | 537 kts | 188° |
| 2026-04-28 17:35 | 55.61889 | 23.24889 | 40204 ft | 537 kts | 188° |
| 2026-04-28 17:35 | 55.54448 | 23.23151 | 40206 ft | 537 kts | 188° |
| 2026-04-28 17:36 | 55.47084 | 23.21438 | 40206 ft | 537 kts | 188° |
| 2026-04-28 17:36 | 55.39664 | 23.19719 | 40211 ft | 537 kts | 188° |
| 2026-04-28 17:37 | 55.32246 | 23.18007 | 40217 ft | 537 kts | 188° |
| 2026-04-28 17:37 | 55.24874 | 23.16311 | 40221 ft | 536 kts | 188° |
| 2026-04-28 17:38 | 55.17506 | 23.14623 | 40228 ft | 536 kts | 188° |
| 2026-04-28 17:38 | 55.10126 | 23.12938 | 40227 ft | 536 kts | 188° |
| 2026-04-28 17:39 | 55.02711 | 23.11252 | 40228 ft | 536 kts | 188° |
| 2026-04-28 17:40 | 54.91637 | 23.08745 | 40231 ft | 536 kts | 188° |
| 2026-04-28 17:40 | 54.84218 | 23.07073 | 40226 ft | 537 kts | 188° |
| 2026-04-28 17:41 | 54.76781 | 23.05404 | 40228 ft | 536 kts | 188° |
| 2026-04-28 17:41 | 54.69366 | 23.03746 | 40229 ft | 536 kts | 188° |
| 2026-04-28 17:42 | 54.61987 | 23.02101 | 40225 ft | 536 kts | 188° |
| 2026-04-28 17:42 | 54.54581 | 23.00457 | 40226 ft | 536 kts | 188° |
| 2026-04-28 17:43 | 54.47184 | 22.98821 | 40222 ft | 536 kts | 188° |
| 2026-04-28 17:43 | 54.39781 | 22.97189 | 40217 ft | 536 kts | 188° |
| 2026-04-28 17:44 | 54.32388 | 22.95565 | 40217 ft | 536 kts | 189° |
| 2026-04-28 17:44 | 54.24975 | 22.93943 | 40219 ft | 536 kts | 189° |
| 2026-04-28 17:45 | 54.17585 | 22.92332 | 40218 ft | 536 kts | 189° |
| 2026-04-28 17:45 | 54.10190 | 22.90550 | 40217 ft | 534 kts | 194° |
| 2026-04-28 17:46 | 54.03301 | 22.86181 | 40225 ft | 529 kts | 211° |
| 2026-04-28 17:46 | 53.96965 | 22.79874 | 40239 ft | 528 kts | 213° |
| 2026-04-28 17:47 | 53.90659 | 22.73500 | 40243 ft | 527 kts | 213° |
| 2026-04-28 17:47 | 53.84334 | 22.67129 | 40236 ft | 527 kts | 213° |
| 2026-04-28 17:48 | 53.78046 | 22.60819 | 40241 ft | 526 kts | 213° |
| 2026-04-28 17:48 | 53.71756 | 22.54528 | 40244 ft | 526 kts | 214° |
| 2026-04-28 17:49 | 53.65449 | 22.48244 | 40241 ft | 527 kts | 214° |
| 2026-04-28 17:49 | 53.59173 | 22.42012 | 40254 ft | 527 kts | 214° |
| 2026-04-28 17:50 | 53.52868 | 22.35774 | 40251 ft | 526 kts | 213° |
| 2026-04-28 17:50 | 53.46514 | 22.29508 | 40259 ft | 526 kts | 213° |
| 2026-04-28 17:51 | 53.40174 | 22.23280 | 40258 ft | 526 kts | 213° |
| 2026-04-28 17:51 | 53.33853 | 22.17090 | 40260 ft | 526 kts | 213° |
| 2026-04-28 17:52 | 53.27570 | 22.10959 | 40261 ft | 526 kts | 213° |
| 2026-04-28 17:52 | 53.18073 | 22.01732 | 40273 ft | 526 kts | 213° |
| 2026-04-28 17:53 | 53.11750 | 21.95616 | 40275 ft | 526 kts | 213° |
| 2026-04-28 17:53 | 53.05449 | 21.89541 | 40273 ft | 526 kts | 213° |
| 2026-04-28 17:54 | 52.99147 | 21.83487 | 40272 ft | 525 kts | 213° |
| 2026-04-28 17:54 | 52.92819 | 21.77428 | 40283 ft | 525 kts | 213° |
| 2026-04-28 17:55 | 52.86474 | 21.71373 | 40267 ft | 524 kts | 213° |
| 2026-04-28 17:55 | 52.80147 | 21.65356 | 40271 ft | 524 kts | 213° |
| 2026-04-28 17:56 | 52.73798 | 21.59340 | 40280 ft | 524 kts | 213° |
| 2026-04-28 17:56 | 52.67498 | 21.53388 | 40273 ft | 524 kts | 213° |
| 2026-04-28 17:57 | 52.61152 | 21.47414 | 40281 ft | 523 kts | 213° |
| 2026-04-28 17:57 | 52.54831 | 21.41483 | 40267 ft | 523 kts | 214° |
| 2026-04-28 17:58 | 52.48500 | 21.35564 | 40255 ft | 522 kts | 214° |
| 2026-04-28 17:58 | 52.42183 | 21.29676 | 40261 ft | 523 kts | 213° |
| 2026-04-28 17:59 | 52.35858 | 21.23801 | 40256 ft | 522 kts | 213° |
| 2026-04-28 17:59 | 52.29507 | 21.17921 | 40264 ft | 523 kts | 213° |
| 2026-04-28 18:00 | 52.23196 | 21.12098 | 40259 ft | 522 kts | 213° |
| 2026-04-28 18:00 | 52.16893 | 21.06301 | 40275 ft | 521 kts | 213° |
| 2026-04-28 18:01 | 52.10550 | 21.00487 | 40271 ft | 521 kts | 213° |
| 2026-04-28 18:01 | 52.04266 | 20.94745 | 40272 ft | 521 kts | 213° |
| 2026-04-28 18:02 | 51.97970 | 20.89011 | 40265 ft | 521 kts | 213° |
| 2026-04-28 18:02 | 51.91647 | 20.83272 | 40271 ft | 520 kts | 213° |
| 2026-04-28 18:03 | 51.85342 | 20.77568 | 40264 ft | 519 kts | 213° |
| 2026-04-28 18:03 | 51.79034 | 20.71879 | 40272 ft | 520 kts | 213° |
| 2026-04-28 18:04 | 51.72680 | 20.66166 | 40269 ft | 520 kts | 213° |
| 2026-04-28 18:04 | 51.66359 | 20.60503 | 40272 ft | 518 kts | 213° |
| 2026-04-28 18:05 | 51.61094 | 20.55799 | 40273 ft | 519 kts | 213° |
| 2026-04-28 18:05 | 51.53759 | 20.49266 | 40275 ft | 519 kts | 213° |
| 2026-04-28 18:06 | 51.47417 | 20.43639 | 40267 ft | 519 kts | 213° |
| 2026-04-28 18:06 | 51.41131 | 20.38078 | 40263 ft | 519 kts | 213° |
| 2026-04-28 18:07 | 51.34647 | 20.32922 | 40251 ft | 523 kts | 208° |
| 2026-04-28 18:07 | 51.28060 | 20.28032 | 40251 ft | 522 kts | 208° |
| 2026-04-28 18:08 | 51.21426 | 20.23123 | 40249 ft | 522 kts | 208° |
| 2026-04-28 18:08 | 51.14863 | 20.18283 | 40247 ft | 523 kts | 208° |
| 2026-04-28 18:09 | 51.08232 | 20.13407 | 40244 ft | 525 kts | 208° |
| 2026-04-28 18:09 | 51.01608 | 20.08552 | 40245 ft | 525 kts | 208° |
| 2026-04-28 18:10 | 50.94992 | 20.03718 | 40246 ft | 524 kts | 208° |
| 2026-04-28 18:10 | 50.88345 | 19.98877 | 40240 ft | 523 kts | 208° |
| 2026-04-28 18:11 | 50.81720 | 19.94066 | 40238 ft | 522 kts | 209° |
| 2026-04-28 18:11 | 50.75154 | 19.89313 | 40236 ft | 523 kts | 209° |
| 2026-04-28 18:12 | 50.68542 | 19.84541 | 40241 ft | 523 kts | 209° |
| 2026-04-28 18:12 | 50.61898 | 19.79762 | 40230 ft | 522 kts | 209° |
| 2026-04-28 18:13 | 50.55289 | 19.75023 | 40241 ft | 521 kts | 209° |
| 2026-04-28 18:13 | 50.48675 | 19.70294 | 40224 ft | 521 kts | 209° |
| 2026-04-28 18:14 | 50.42059 | 19.65578 | 40220 ft | 522 kts | 209° |
| 2026-04-28 18:14 | 50.35453 | 19.60884 | 40236 ft | 522 kts | 209° |
| 2026-04-28 18:15 | 50.28904 | 19.56245 | 40229 ft | 521 kts | 209° |
| 2026-04-28 18:15 | 50.22321 | 19.51597 | 40239 ft | 520 kts | 209° |
| 2026-04-28 18:16 | 50.15755 | 19.46974 | 40245 ft | 519 kts | 209° |
| 2026-04-28 18:16 | 50.09187 | 19.42363 | 40235 ft | 518 kts | 209° |
| 2026-04-28 18:17 | 50.02592 | 19.37748 | 40238 ft | 519 kts | 209° |
| 2026-04-28 18:17 | 49.96022 | 19.33164 | 40234 ft | 518 kts | 208° |
| 2026-04-28 18:18 | 49.89452 | 19.28593 | 40221 ft | 517 kts | 208° |
| 2026-04-28 18:18 | 49.83968 | 19.24789 | 40209 ft | 517 kts | 208° |
| 2026-04-28 18:19 | 49.76289 | 19.19478 | 40191 ft | 516 kts | 208° |
| 2026-04-28 18:19 | 49.69724 | 19.14952 | 40191 ft | 517 kts | 209° |
| 2026-04-28 18:20 | 49.63153 | 19.10436 | 40170 ft | 516 kts | 209° |
| 2026-04-28 18:20 | 49.56662 | 19.05987 | 40159 ft | 515 kts | 209° |
| 2026-04-28 18:21 | 49.50087 | 19.01494 | 40169 ft | 515 kts | 209° |
| 2026-04-28 18:21 | 49.43576 | 18.97053 | 40193 ft | 515 kts | 210° |
| 2026-04-28 18:22 | 49.37264 | 18.92062 | 40191 ft | 509 kts | 213° |
| 2026-04-28 18:22 | 49.30986 | 18.86995 | 40182 ft | 509 kts | 213° |
| 2026-04-28 18:23 | 49.24752 | 18.82008 | 40199 ft | 508 kts | 213° |
| 2026-04-28 18:23 | 49.18490 | 18.77029 | 40201 ft | 508 kts | 213° |
| 2026-04-28 18:24 | 49.13266 | 18.72894 | 40190 ft | 506 kts | 213° |
| 2026-04-28 18:24 | 49.05992 | 18.67158 | 40172 ft | 507 kts | 213° |
| 2026-04-28 18:25 | 48.99764 | 18.62266 | 40171 ft | 506 kts | 213° |
| 2026-04-28 18:26 | 48.90379 | 18.54923 | 40180 ft | 506 kts | 213° |
| 2026-04-28 18:26 | 48.84132 | 18.50053 | 40173 ft | 505 kts | 213° |
| 2026-04-28 18:27 | 48.77843 | 18.45165 | 40172 ft | 504 kts | 213° |
| 2026-04-28 18:27 | 48.71591 | 18.40318 | 40168 ft | 505 kts | 213° |
| 2026-04-28 18:28 | 48.65375 | 18.35515 | 40164 ft | 504 kts | 213° |
| 2026-04-28 18:28 | 48.59117 | 18.30691 | 40158 ft | 506 kts | 212° |
| 2026-04-28 18:29 | 48.52827 | 18.25858 | 40171 ft | 503 kts | 212° |
| 2026-04-28 18:29 | 48.46573 | 18.21064 | 40156 ft | 503 kts | 212° |
| 2026-04-28 18:30 | 48.40348 | 18.16306 | 40167 ft | 504 kts | 212° |
| 2026-04-28 18:30 | 48.34110 | 18.11552 | 40161 ft | 503 kts | 213° |
| 2026-04-28 18:31 | 48.27888 | 18.06823 | 40133 ft | 503 kts | 213° |
| 2026-04-28 18:31 | 48.21602 | 18.02058 | 40150 ft | 502 kts | 213° |
| 2026-04-28 18:32 | 48.15402 | 17.97372 | 40130 ft | 502 kts | 213° |
| 2026-04-28 18:32 | 48.09148 | 17.92657 | 40137 ft | 504 kts | 213° |
| 2026-04-28 18:33 | 48.02876 | 17.87942 | 40122 ft | 503 kts | 213° |
| 2026-04-28 18:33 | 47.96645 | 17.83270 | 40124 ft | 504 kts | 212° |
| 2026-04-28 18:34 | 47.90385 | 17.78591 | 40117 ft | 501 kts | 212° |
| 2026-04-28 18:34 | 47.84133 | 17.73929 | 40112 ft | 502 kts | 213° |
| 2026-04-28 18:35 | 47.77848 | 17.69255 | 40116 ft | 502 kts | 212° |
| 2026-04-28 18:35 | 47.71603 | 17.64623 | 40115 ft | 503 kts | 212° |
| 2026-04-28 18:36 | 47.65342 | 17.59993 | 40122 ft | 502 kts | 212° |
| 2026-04-28 18:36 | 47.59084 | 17.55377 | 40121 ft | 502 kts | 212° |
| 2026-04-28 18:37 | 47.52845 | 17.50788 | 40122 ft | 501 kts | 212° |
| 2026-04-28 18:37 | 47.46609 | 17.46212 | 40123 ft | 501 kts | 212° |
| 2026-04-28 18:38 | 47.40366 | 17.41644 | 40124 ft | 501 kts | 212° |
| 2026-04-28 18:38 | 47.34134 | 17.37097 | 40121 ft | 500 kts | 212° |
| 2026-04-28 18:39 | 47.27877 | 17.32542 | 40131 ft | 502 kts | 211° |
| 2026-04-28 18:39 | 47.21620 | 17.27999 | 40127 ft | 501 kts | 211° |
| 2026-04-28 18:40 | 47.15353 | 17.23462 | 40122 ft | 500 kts | 211° |
| 2026-04-28 18:40 | 47.09131 | 17.18969 | 40121 ft | 501 kts | 211° |
| 2026-04-28 18:41 | 47.02878 | 17.14465 | 40120 ft | 502 kts | 211° |
| 2026-04-28 18:41 | 46.96609 | 17.09964 | 40108 ft | 494 kts | 211° |
| 2026-04-28 18:41 | 46.93574 | 17.07794 | 39710 ft | 486 kts | 211° |
| 2026-04-28 18:42 | 46.90520 | 17.05607 | 39085 ft | 481 kts | 212° |
| 2026-04-28 18:42 | 46.87569 | 17.03501 | 38815 ft | 470 kts | 212° |
| 2026-04-28 18:42 | 46.84670 | 17.01433 | 38418 ft | 463 kts | 213° |
| 2026-04-28 18:42 | 46.81762 | 16.99356 | 37596 ft | 465 kts | 213° |
| 2026-04-28 18:43 | 46.78837 | 16.97267 | 36642 ft | 470 kts | 213° |
| 2026-04-28 18:43 | 46.75893 | 16.95168 | 35982 ft | 472 kts | 214° |
| 2026-04-28 18:43 | 46.72957 | 16.93081 | 35368 ft | 471 kts | 214° |
| 2026-04-28 18:43 | 46.70027 | 16.91003 | 34702 ft | 470 kts | 215° |
| 2026-04-28 18:44 | 46.67075 | 16.88905 | 33441 ft | 480 kts | 214° |
| 2026-04-28 18:44 | 46.61013 | 16.84609 | 31389 ft | 483 kts | 213° |
| 2026-04-28 18:44 | 46.58025 | 16.82506 | 31025 ft | 471 kts | 214° |
| 2026-04-28 18:45 | 46.55135 | 16.80474 | 30527 ft | 463 kts | 213° |
| 2026-04-28 18:45 | 46.52253 | 16.78444 | 29811 ft | 460 kts | 213° |
| 2026-04-28 18:45 | 46.49395 | 16.76431 | 29010 ft | 458 kts | 213° |
| 2026-04-28 18:45 | 46.46531 | 16.74417 | 28381 ft | 452 kts | 213° |
| 2026-04-28 18:46 | 46.43719 | 16.72444 | 27795 ft | 446 kts | 213° |
| 2026-04-28 18:46 | 46.41024 | 16.70362 | 27175 ft | 435 kts | 219° |
| 2026-04-28 18:46 | 46.38649 | 16.67772 | 26536 ft | 423 kts | 227° |
| 2026-04-28 18:46 | 46.36464 | 16.64977 | 25908 ft | 418 kts | 228° |
| 2026-04-28 18:47 | 46.34325 | 16.62215 | 25281 ft | 414 kts | 228° |
| 2026-04-28 18:47 | 46.32179 | 16.59453 | 24646 ft | 409 kts | 227° |
| 2026-04-28 18:47 | 46.30054 | 16.56727 | 23995 ft | 406 kts | 227° |
| 2026-04-28 18:47 | 46.27982 | 16.54075 | 23392 ft | 401 kts | 227° |
| 2026-04-28 18:48 | 46.25907 | 16.51424 | 22751 ft | 399 kts | 227° |
| 2026-04-28 18:48 | 46.23836 | 16.48783 | 22091 ft | 396 kts | 226° |
| 2026-04-28 18:48 | 46.21775 | 16.46159 | 21434 ft | 394 kts | 226° |
| 2026-04-28 18:48 | 46.19743 | 16.43577 | 20831 ft | 391 kts | 226° |
| 2026-04-28 18:49 | 46.17716 | 16.41004 | 20221 ft | 387 kts | 226° |
| 2026-04-28 18:49 | 46.16370 | 16.39297 | 19818 ft | 385 kts | 226° |
| 2026-04-28 18:49 | 46.13708 | 16.35925 | 19012 ft | 381 kts | 225° |
| 2026-04-28 18:49 | 46.11731 | 16.33423 | 18419 ft | 378 kts | 224° |
| 2026-04-28 18:50 | 46.09771 | 16.30946 | 17840 ft | 375 kts | 224° |
| 2026-04-28 18:50 | 46.07809 | 16.28471 | 17237 ft | 373 kts | 224° |
| 2026-04-28 18:50 | 46.05856 | 16.26007 | 16650 ft | 370 kts | 224° |
| 2026-04-28 18:50 | 46.03914 | 16.23559 | 16070 ft | 367 kts | 223° |
| 2026-04-28 18:51 | 46.02012 | 16.21164 | 15480 ft | 364 kts | 224° |
| 2026-04-28 18:51 | 46.00232 | 16.18612 | 14870 ft | 361 kts | 228° |
| 2026-04-28 18:51 | 45.98527 | 16.15995 | 14297 ft | 359 kts | 229° |
| 2026-04-28 18:51 | 45.96859 | 16.13430 | 14022 ft | 354 kts | 228° |
| 2026-04-28 18:52 | 45.95155 | 16.10815 | 13976 ft | 353 kts | 228° |
| 2026-04-28 18:52 | 45.93491 | 16.08269 | 13474 ft | 350 kts | 228° |
| 2026-04-28 18:52 | 45.91824 | 16.05721 | 12697 ft | 354 kts | 228° |
| 2026-04-28 18:52 | 45.90132 | 16.03143 | 12239 ft | 345 kts | 228° |
| 2026-04-28 18:53 | 45.88535 | 16.00713 | 11859 ft | 327 kts | 228° |
| 2026-04-28 18:53 | 45.87004 | 15.98385 | 11461 ft | 310 kts | 228° |
| 2026-04-28 18:53 | 45.85540 | 15.96161 | 11363 ft | 296 kts | 228° |
| 2026-04-28 18:53 | 45.84167 | 15.94077 | 11348 ft | 282 kts | 229° |
| 2026-04-28 18:54 | 45.82848 | 15.92075 | 11149 ft | 277 kts | 228° |
| 2026-04-28 18:54 | 45.81532 | 15.90079 | 10817 ft | 276 kts | 229° |
| 2026-04-28 18:54 | 45.80217 | 15.88084 | 10495 ft | 276 kts | 229° |
| 2026-04-28 18:54 | 45.78885 | 15.86065 | 10165 ft | 275 kts | 228° |
| 2026-04-28 18:55 | 45.77575 | 15.84080 | 9850 ft | 274 kts | 228° |
| 2026-04-28 18:55 | 45.76698 | 15.82752 | 9651 ft | 273 kts | 229° |
| 2026-04-28 18:55 | 45.74956 | 15.80118 | 9251 ft | 272 kts | 228° |
| 2026-04-28 18:55 | 45.73657 | 15.78154 | 8937 ft | 271 kts | 228° |
| 2026-04-28 18:56 | 45.72368 | 15.76208 | 8466 ft | 269 kts | 227° |
| 2026-04-28 18:56 | 45.71086 | 15.74273 | 8022 ft | 269 kts | 227° |
| 2026-04-28 18:56 | 45.69814 | 15.72353 | 7749 ft | 268 kts | 227° |
| 2026-04-28 18:56 | 45.68539 | 15.70433 | 7468 ft | 266 kts | 227° |
| 2026-04-28 18:57 | 45.67255 | 15.68502 | 7213 ft | 264 kts | 227° |
| 2026-04-28 18:57 | 45.65963 | 15.66681 | 6885 ft | 264 kts | 216° |
| 2026-04-28 18:57 | 45.64275 | 15.65655 | 6490 ft | 265 kts | 188° |
| 2026-04-28 18:57 | 45.62452 | 15.65877 | 6169 ft | 263 kts | 160° |
| 2026-04-28 18:58 | 45.60905 | 15.67206 | 5879 ft | 259 kts | 139° |
| 2026-04-28 18:58 | 45.59607 | 15.68892 | 5630 ft | 250 kts | 136° |
| 2026-04-28 18:58 | 45.58357 | 15.70591 | 5340 ft | 243 kts | 135° |
| 2026-04-28 18:58 | 45.57146 | 15.72235 | 5002 ft | 240 kts | 135° |
| 2026-04-28 18:59 | 45.56095 | 15.74054 | 4790 ft | 239 kts | 117° |
| 2026-04-28 18:59 | 45.55689 | 15.76324 | 4643 ft | 237 kts | 91° |
| 2026-04-28 18:59 | 45.56016 | 15.78563 | 4519 ft | 227 kts | 66° |
| 2026-04-28 18:59 | 45.56894 | 15.80373 | 4419 ft | 215 kts | 52° |
| 2026-04-28 19:00 | 45.57810 | 15.81975 | 4323 ft | 205 kts | 52° |
| 2026-04-28 19:00 | 45.58733 | 15.83492 | 4224 ft | 196 kts | 50° |
| 2026-04-28 19:00 | 45.59644 | 15.84873 | 4117 ft | 188 kts | 48° |
| 2026-04-28 19:00 | 45.60557 | 15.86213 | 3883 ft | 188 kts | 48° |
| 2026-04-28 19:01 | 45.61468 | 15.87554 | 3646 ft | 188 kts | 48° |
| 2026-04-28 19:01 | 45.62347 | 15.88866 | 3412 ft | 176 kts | 49° |
| 2026-04-28 19:01 | 45.63203 | 15.90151 | 3188 ft | 177 kts | 49° |
| 2026-04-28 19:01 | 45.64040 | 15.91408 | 2965 ft | 175 kts | 50° |
| 2026-04-28 19:02 | 45.64884 | 15.92680 | 2732 ft | 176 kts | 49° |
| 2026-04-28 19:02 | 45.65725 | 15.93947 | 2501 ft | 176 kts | 49° |
| 2026-04-28 19:02 | 45.66560 | 15.95203 | 2267 ft | 172 kts | 49° |
| 2026-04-28 19:02 | 45.67361 | 15.96408 | 2048 ft | 161 kts | 49° |
| 2026-04-28 19:03 | 45.68104 | 15.97527 | 1850 ft | 156 kts | 50° |
| 2026-04-28 19:03 | 45.68851 | 15.98655 | 1638 ft | 155 kts | 50° |
| 2026-04-28 19:03 | 45.69589 | 15.99771 | 1427 ft | 156 kts | 49° |
| 2026-04-28 19:03 | 45.70332 | 16.00891 | 1213 ft | 150 kts | 49° |
| 2026-04-28 19:04 | 45.71025 | 16.01955 | 1020 ft | 144 kts | 48° |
| 2026-04-28 19:04 | 45.71738 | 16.02945 | 913 ft | 141 kts | 44° |
| 2026-04-28 19:04 | 45.72403 | 16.03954 | 693 ft | 138 kts | 52° |
| 2026-04-28 19:04 | 45.73040 | 16.04963 | 499 ft | 134 kts | 47° |
| 2026-04-28 19:05 | 45.73658 | 16.05924 | 366 ft | 123 kts | 46° |
| 2026-04-28 19:05 | 45.74145 | 16.06651 | 364 ft | 78 kts | 47° |
| 2026-04-28 19:05 | 45.74258 | 16.06828 | 363 ft | 14 kts | 48° |